N122JM SKBG-SKEJ

Flight info

Callsign N122JM
Flight time 0h 22m
Altitude 14000
Route UMKAG1A UMKAG UMKAG1D
Aircraft PC12/L-SDFGRWY/S

Departure

Time 2026-04-26 19:55
Airport Palonegro Airport (SKBG)

Arrival

Time 2026-04-26 20:17
Airport Yariguíes Airport (SKEJ)
Time Latitude Longitude Altitude Speed Heading
2026-04-26 19:31 7.12806 -73.18358 3900 ft 0 kts 339°
2026-04-26 19:45 7.12807 -73.18342 3896 ft 9 kts 214°
2026-04-26 19:45 7.12763 -73.18327 3898 ft 10 kts 154°
2026-04-26 19:45 7.12733 -73.18357 3901 ft 8 kts 282°
2026-04-26 19:45 7.12718 -73.18397 3899 ft 10 kts 163°
2026-04-26 19:46 7.12632 -73.18365 3896 ft 16 kts 159°
2026-04-26 19:46 7.12521 -73.18322 3894 ft 19 kts 159°
2026-04-26 19:46 7.12388 -73.18270 3888 ft 22 kts 159°
2026-04-26 19:46 7.12237 -73.18212 3882 ft 24 kts 159°
2026-04-26 19:47 7.12079 -73.18151 3876 ft 25 kts 158°
2026-04-26 19:47 7.12026 -73.18130 3872 ft 25 kts 160°
2026-04-26 19:47 7.11776 -73.18051 3856 ft 24 kts 162°
2026-04-26 19:47 7.11672 -73.18027 3847 ft 2 kts 228°
2026-04-26 19:53 7.11670 -73.18030 3848 ft 3 kts 229°
2026-04-26 19:53 7.11646 -73.18084 3852 ft 12 kts 248°
2026-04-26 19:53 7.11665 -73.18104 3850 ft 0 kts 339°
2026-04-26 19:54 7.11672 -73.18107 3851 ft 10 kts 339°
2026-04-26 19:54 7.11930 -73.18205 3866 ft 68 kts 339°
2026-04-26 19:54 7.12524 -73.18426 3970 ft 106 kts 334°
2026-04-26 19:54 7.13259 -73.18699 4400 ft 120 kts 335°
2026-04-26 19:55 7.14056 -73.19012 4943 ft 129 kts 339°
2026-04-26 19:55 7.14929 -73.19345 5485 ft 142 kts 340°
2026-04-26 19:55 7.15917 -73.19714 6023 ft 157 kts 340°
2026-04-26 19:55 7.16957 -73.20102 6598 ft 161 kts 340°
2026-04-26 19:56 7.18008 -73.20498 7133 ft 162 kts 340°
2026-04-26 19:56 7.19064 -73.20896 7675 ft 162 kts 340°
2026-04-26 19:56 7.20115 -73.21293 8208 ft 160 kts 340°
2026-04-26 19:56 7.21154 -73.21685 8731 ft 159 kts 340°
2026-04-26 19:57 7.22176 -73.22071 9238 ft 159 kts 340°
2026-04-26 19:57 7.23197 -73.22502 9730 ft 159 kts 326°
2026-04-26 19:57 7.23807 -73.23405 10168 ft 160 kts 282°
2026-04-26 19:57 7.23643 -73.24493 10603 ft 161 kts 239°
2026-04-26 19:58 7.22941 -73.25365 11047 ft 160 kts 228°
2026-04-26 19:58 7.22196 -73.26207 11504 ft 162 kts 229°
2026-04-26 19:58 7.21449 -73.27063 11975 ft 163 kts 229°
2026-04-26 19:58 7.20698 -73.27926 12455 ft 164 kts 229°
2026-04-26 19:59 7.19943 -73.28792 12946 ft 165 kts 229°
2026-04-26 19:59 7.19182 -73.29666 13444 ft 166 kts 228°
2026-04-26 19:59 7.18383 -73.30584 13610 ft 190 kts 229°
2026-04-26 19:59 7.17473 -73.31635 13688 ft 209 kts 229°
2026-04-26 20:00 7.16490 -73.32769 13812 ft 220 kts 229°
2026-04-26 20:00 7.15460 -73.33952 13954 ft 227 kts 229°
2026-04-26 20:00 7.14396 -73.35174 13977 ft 237 kts 229°
2026-04-26 20:00 7.13245 -73.36403 13973 ft 244 kts 219°
2026-04-26 20:01 7.11866 -73.37429 13962 ft 249 kts 216°
2026-04-26 20:01 7.10453 -73.38464 13956 ft 253 kts 216°
2026-04-26 20:01 7.09026 -73.39526 13948 ft 257 kts 216°
2026-04-26 20:01 7.07582 -73.40602 13941 ft 258 kts 216°
2026-04-26 20:02 7.06149 -73.41665 13933 ft 259 kts 216°
2026-04-26 20:02 7.04694 -73.42744 13928 ft 260 kts 216°
2026-04-26 20:02 7.03244 -73.43819 13997 ft 257 kts 216°
2026-04-26 20:02 7.02275 -73.44539 14020 ft 255 kts 216°
2026-04-26 20:03 7.00375 -73.45947 13926 ft 262 kts 216°
2026-04-26 20:03 6.98865 -73.47069 13495 ft 274 kts 216°
2026-04-26 20:03 6.97347 -73.48223 13039 ft 272 kts 220°
2026-04-26 20:03 6.96111 -73.49661 12582 ft 272 kts 237°
2026-04-26 20:04 6.95243 -73.51345 12168 ft 270 kts 244°
2026-04-26 20:04 6.94435 -73.53047 11778 ft 269 kts 244°
2026-04-26 20:04 6.93626 -73.54740 11392 ft 268 kts 244°
2026-04-26 20:04 6.92815 -73.56425 11020 ft 267 kts 244°
2026-04-26 20:05 6.92008 -73.58101 10669 ft 266 kts 244°
2026-04-26 20:05 6.91207 -73.59770 10320 ft 265 kts 244°
2026-04-26 20:05 6.90417 -73.61415 9983 ft 264 kts 244°
2026-04-26 20:05 6.89616 -73.63082 9628 ft 264 kts 244°
2026-04-26 20:06 6.88819 -73.64741 9244 ft 263 kts 244°
2026-04-26 20:06 6.88025 -73.66393 8856 ft 261 kts 244°
2026-04-26 20:06 6.87236 -73.68035 8485 ft 259 kts 244°
2026-04-26 20:06 6.86455 -73.69663 8121 ft 257 kts 244°
2026-04-26 20:07 6.85678 -73.71279 7763 ft 256 kts 244°
2026-04-26 20:07 6.84907 -73.72883 7405 ft 248 kts 245°
2026-04-26 20:07 6.84183 -73.74392 7050 ft 231 kts 245°
2026-04-26 20:07 6.83506 -73.75800 6698 ft 216 kts 245°
2026-04-26 20:08 6.82859 -73.77144 6353 ft 213 kts 245°
2026-04-26 20:08 6.82220 -73.78473 6090 ft 209 kts 246°
2026-04-26 20:08 6.81603 -73.79757 5822 ft 203 kts 245°
2026-04-26 20:08 6.81081 -73.81021 5594 ft 189 kts 256°
2026-04-26 20:09 6.80999 -73.82305 5345 ft 186 kts 277°
2026-04-26 20:09 6.81369 -73.83540 5100 ft 181 kts 298°
2026-04-26 20:09 6.82096 -73.84520 4854 ft 171 kts 316°
2026-04-26 20:09 6.82931 -73.85334 4623 ft 164 kts 316°
2026-04-26 20:10 6.83730 -73.86123 4391 ft 158 kts 316°
2026-04-26 20:10 6.84497 -73.86880 4211 ft 152 kts 316°
2026-04-26 20:10 6.85245 -73.87618 4033 ft 149 kts 317°
2026-04-26 20:10 6.85979 -73.88342 3860 ft 146 kts 317°
2026-04-26 20:11 6.86733 -73.88995 3723 ft 140 kts 332°
2026-04-26 20:11 6.87655 -73.89232 3599 ft 137 kts
2026-04-26 20:11 6.88553 -73.89010 3495 ft 134 kts 27°
2026-04-26 20:12 6.90074 -73.88101 3150 ft 115 kts 30°
2026-04-26 20:12 6.90704 -73.87724 2956 ft 97 kts 29°
2026-04-26 20:12 6.91268 -73.87389 2823 ft 96 kts 29°
2026-04-26 20:12 6.91857 -73.87039 2700 ft 101 kts 30°
2026-04-26 20:13 6.92472 -73.86673 2557 ft 103 kts 30°
2026-04-26 20:13 6.93083 -73.86309 2410 ft 100 kts 30°
2026-04-26 20:13 6.93683 -73.85950 2282 ft 100 kts 28°
2026-04-26 20:13 6.94261 -73.85605 2107 ft 93 kts 30°
2026-04-26 20:14 6.94807 -73.85278 1953 ft 89 kts 30°
2026-04-26 20:14 6.95351 -73.84952 1811 ft 93 kts 30°
2026-04-26 20:14 6.95904 -73.84620 1684 ft 92 kts 31°
2026-04-26 20:14 6.96452 -73.84290 1560 ft 92 kts 30°
2026-04-26 20:15 6.96988 -73.83968 1441 ft 90 kts 30°
2026-04-26 20:15 6.97528 -73.83644 1322 ft 91 kts 30°
2026-04-26 20:15 6.98075 -73.83315 1215 ft 92 kts 31°
2026-04-26 20:15 6.98620 -73.82988 1109 ft 91 kts 29°
2026-04-26 20:16 6.99166 -73.82659 999 ft 91 kts 30°
2026-04-26 20:16 6.99708 -73.82332 866 ft 90 kts 29°
2026-04-26 20:16 7.00237 -73.82013 772 ft 88 kts 29°
2026-04-26 20:16 7.00763 -73.81695 678 ft 88 kts 29°
2026-04-26 20:17 7.01310 -73.81369 575 ft 93 kts 31°
2026-04-26 20:17 7.01878 -73.81022 429 ft 96 kts 30°
2026-04-26 20:17 7.02384 -73.80716 400 ft 64 kts 33°
2026-04-26 20:17 7.02494 -73.80649 400 ft 11 kts 30°
2026-04-26 20:18 7.02539 -73.80677 400 ft 9 kts 257°
2026-04-26 20:18 7.02527 -73.80725 399 ft 8 kts 257°
2026-04-26 20:18 7.02483 -73.80766 399 ft 9 kts 212°
2026-04-26 20:18 7.02433 -73.80796 399 ft 8 kts 205°
2026-04-26 20:19 7.02393 -73.80819 399 ft 6 kts 205°
2026-04-26 20:19 7.02379 -73.80832 399 ft 2 kts 275°
2026-04-26 20:19 7.02393 -73.80861 399 ft 5 kts 299°
2026-04-26 20:19 7.02402 -73.80872 399 ft 1 kts 336°
2026-04-26 20:20 7.02407 -73.80872 399 ft 1 kts 27°
2026-04-26 20:20 7.02415 -73.80866 399 ft 2 kts 31°
2026-04-26 20:20 7.02417 -73.80865 399 ft 0 kts 30°